Weather at Parakylia Airport

Public forecast

Using degrees Celsius for public forecast. Weather courtesy of forecast.io.

Closest aviation weather report (METAR) to Parakylia Airport

Closest report is Olympic Dam Airport, 25.6 nm (47.4 km) ESE. Retrieved 2021/06/12 17:00 UTC (29 minutes ago):

YOLD 121700Z AUTO 03008KT 9999 // BKN100 11/03 Q1015

Closest aviation forecast (TAF) to Parakylia Airport

Forecast is more than 12 hours old.

Closest forecast is Woomera Airfield, 49.8 nm (92.2 km) SSE. Retrieved 2021-06-12 00:00 UTC (17 hours ago):

TAF YPWR 112314Z 1200/1218 01008KT CAVOK FM120100 36013KT CAVOK FM120700 02010KT 9999 -SHRA NSC